Accueil
METAR-TAF:

METAR-TAF

Aéroports :

Aéroport de Figari Sud Corse

Figari, France

latitude: 41-30N, longitude: 009-06E, altitude: 26 m

Observation

Le bulletin a été fait il y a 30 minutes, à 03:00 UTC
Vent 2 kt de sud
Température 14°C
Humidité 94%
Pression 1018 hPa
Visibilité 10 km ou plus
pas de nuages en-dessous de 1500 mètres et pas de cumulonimbus.

METAR: LFKF 200300Z AUTO 19002KT CAVOK 14/13 Q1018 NOSIG

Heure: 05:30 (03:30 UTC)

Prévision

Le bulletin a été fait il y a 1 heure et 30 minutes, à 02:00 UTC
Prévision valable du 20 à 03 UTC au 21 à 03 UTC
Vent 3 kt de direction variable
Visibilité 10 km ou plus
pas de nuages en-dessous de 1500 mètres et pas de cumulonimbus.
Evoluant progressivement
du 20 à 08 UTC au 20 à 10 UTC
Vent 10 kt de sud-ouest
Evoluant progressivement
du 20 à 17 UTC au 20 à 19 UTC
Vent 3 kt de nord-est

TAF: LFKF 200200Z 2003/2103 VRB03KT CAVOK BECMG 2008/2010 22010KT BECMG 2017/2019 04003KT

Observations et prévisions météorologiques de plus de 4000 aéroports (messages METAR et TAF).

Les stations disponibles sont représentées par des disques jaunes et rouges sur la carte.

Passer la souris dessus pour voir le nom de la station.

Cliquer dessus pour voir les observations et prévisions météorologiques.

Pour changer de carte: cliquez sur les boutons verts avec une croix noire pour zoomer, sur le bouton vert avec un tiret pour effectuer un zoom arrière, ou sur les flèches vertes pour les cartes adjacentes.


METAR-TAF: